Time;durP1;ratioP1;P1;durP2;ratioP2;P2;SDS_P1;SDS_P2;PMS_P1;PMS_P2;Temp;Humidity;BMP_temperature;BMP_pressure;BME280_temperature;BME280_humidity;BME280_pressure;Samples;Min_cycle;Max_cycle;Signal;HPM_P1;HPM_P2
2023/07/13 00:02:07;;;;;;;23.70;6.20;;;;;;;23.69;nan;100280.22;4967562;28;20027;-68
2023/07/13 00:04:33;;;;;;;18.88;7.28;;;;;;;23.86;nan;100304.44;4971436;28;20030;-69
2023/07/13 00:06:58;;;;;;;18.77;6.32;;;;;;;23.82;nan;100302.69;4975002;28;20027;-68
2023/07/13 00:09:24;;;;;;;17.45;5.72;;;;;;;23.74;nan;100302.38;4971009;28;20027;-70
2023/07/13 00:11:55;;;;;;;20.35;6.30;;;;;;;23.68;nan;100309.00;4977771;28;20158;-71
2023/07/13 00:14:21;;;;;;;16.05;6.40;;;;;;;23.66;nan;100300.47;4972136;28;20046;-69
2023/07/13 00:16:46;;;;;;;16.75;6.20;;;;;;;23.65;nan;100298.84;4967516;28;20069;-68
2023/07/13 00:19:12;;;;;;;17.98;6.38;;;;;;;23.57;nan;100294.28;4974708;28;20034;-68
2023/07/13 00:21:41;;;;;;;15.13;6.43;;;;;;;23.57;nan;100297.75;4972799;28;20034;-68
2023/07/13 00:24:12;;;;;;;19.85;6.18;;;;;;;23.57;nan;100307.72;4974211;28;20027;-68
2023/07/13 00:26:38;;;;;;;17.23;6.50;;;;;;;23.51;nan;100290.97;4951960;28;20106;-67
2023/07/13 00:29:03;;;;;;;17.55;6.78;;;;;;;23.55;nan;100288.41;4969722;28;20559;-68
2023/07/13 00:31:30;;;;;;;14.95;5.88;;;;;;;23.51;nan;100285.59;4970177;28;20027;-70
2023/07/13 00:33:56;;;;;;;16.80;6.60;;;;;;;23.50;nan;100289.38;4971332;28;20034;-69
2023/07/13 00:36:21;;;;;;;16.83;6.55;;;;;;;23.49;nan;100290.47;4957071;28;20023;-69
2023/07/13 00:38:47;;;;;;;16.95;6.80;;;;;;;23.50;nan;100289.38;4967608;28;20038;-68
2023/07/13 00:41:13;;;;;;;20.70;7.03;;;;;;;23.49;nan;100276.25;4969146;28;20034;-67
2023/07/13 00:43:38;;;;;;;17.42;6.80;;;;;;;23.51;nan;100287.47;4974383;28;20027;-68
2023/07/13 00:46:12;;;;;;;21.05;6.82;;;;;;;23.49;nan;100279.72;4954954;28;20039;-67
2023/07/13 00:48:38;;;;;;;17.98;6.78;;;;;;;23.49;nan;100285.09;4958817;28;20030;-67
2023/07/13 00:51:04;;;;;;;14.65;6.45;;;;;;;23.45;nan;100286.81;4972506;28;20027;-68
2023/07/13 00:53:32;;;;;;;16.85;6.63;;;;;;;23.39;nan;100277.31;4958090;28;20436;-67
2023/07/13 00:55:58;;;;;;;13.63;7.35;;;;;;;23.36;nan;100281.44;4969447;28;20774;-68
2023/07/13 00:58:25;;;;;;;16.60;7.13;;;;;;;23.30;nan;100279.22;4969550;28;20033;-68
2023/07/13 01:00:51;;;;;;;14.77;6.43;;;;;;;23.22;nan;100280.78;4974961;28;20054;-68
2023/07/13 01:03:16;;;;;;;13.40;6.18;;;;;;;23.13;nan;100293.41;4971286;28;20359;-68
2023/07/13 01:05:42;;;;;;;21.13;7.00;;;;;;;23.00;nan;100287.03;4972813;28;20022;-68
2023/07/13 01:08:08;;;;;;;12.77;6.38;;;;;;;23.01;nan;100291.31;4974525;28;20027;-68
2023/07/13 01:10:38;;;;;;;17.45;7.47;;;;;;;22.83;nan;100293.09;4973998;28;20061;-67
2023/07/13 01:13:06;;;;;;;13.88;6.22;;;;;;;22.82;nan;100288.03;4971152;28;20465;-68
2023/07/13 01:15:47;;;;;;;19.90;7.10;;;;;;;22.86;nan;100289.78;4969641;28;20043;-68
2023/07/13 01:18:16;;;;;;;18.35;6.97;;;;;;;22.80;nan;100279.50;4968708;28;20034;-68
2023/07/13 01:20:50;;;;;;;15.73;6.50;;;;;;;22.80;nan;100266.09;4960166;28;20026;-68
2023/07/13 01:23:16;;;;;;;16.42;7.03;;;;;;;22.83;nan;100265.47;4970428;28;20022;-67
2023/07/13 01:25:41;;;;;;;14.32;7.28;;;;;;;22.83;nan;100286.94;4970272;28;20030;-68
2023/07/13 01:28:11;;;;;;;15.25;6.30;;;;;;;22.83;nan;100285.03;4956219;28;20448;-67
2023/07/13 01:30:39;;;;;;;17.55;6.75;;;;;;;22.83;nan;100273.53;4959425;28;20085;-67
2023/07/13 01:33:06;;;;;;;19.15;6.82;;;;;;;22.82;nan;100275.41;4973883;28;20110;-68
2023/07/13 01:35:32;;;;;;;16.70;7.43;;;;;;;22.85;nan;100293.59;4967067;28;20035;-68
2023/07/13 01:38:00;;;;;;;14.05;7.40;;;;;;;22.86;nan;100289.00;4973572;28;20567;-68
2023/07/13 01:40:26;;;;;;;20.50;6.82;;;;;;;22.84;nan;100289.31;4959768;28;20026;-68
2023/07/13 01:42:51;;;;;;;15.75;7.55;;;;;;;22.81;nan;100283.78;4975183;28;20110;-68
2023/07/13 01:45:16;;;;;;;16.70;7.82;;;;;;;22.81;nan;100279.19;4966568;28;20038;-68
2023/07/13 01:47:42;;;;;;;14.13;6.82;;;;;;;22.83;nan;100293.09;4953212;28;20030;-68
2023/07/13 01:50:07;;;;;;;16.10;7.82;;;;;;;22.85;nan;100288.22;4973884;28;20045;-67
2023/07/13 01:52:33;;;;;;;12.43;6.78;;;;;;;22.86;nan;100284.41;4972172;28;20027;-69
2023/07/13 01:54:58;;;;;;;19.13;6.88;;;;;;;22.81;nan;100268.44;4967317;28;20408;-68
2023/07/13 01:57:23;;;;;;;18.05;7.18;;;;;;;22.85;nan;100284.75;4969569;28;20030;-68
2023/07/13 01:59:49;;;;;;;16.50;7.10;;;;;;;22.83;nan;100281.56;4973615;28;20031;-68
2023/07/13 02:02:14;;;;;;;12.02;6.90;;;;;;;22.85;nan;100285.53;4971144;28;20118;-69
2023/07/13 02:04:40;;;;;;;12.23;6.80;;;;;;;22.82;nan;100271.91;4972239;28;20037;-67
2023/07/13 02:07:05;;;;;;;16.10;7.50;;;;;;;22.78;nan;100260.22;4972109;28;20034;-68
2023/07/13 02:09:31;;;;;;;11.02;6.80;;;;;;;22.76;nan;100249.78;4973047;28;20037;-68
2023/07/13 02:11:56;;;;;;;16.88;7.38;;;;;;;22.62;nan;100239.16;4972121;28;20033;-70
2023/07/13 02:14:22;;;;;;;12.77;7.15;;;;;;;22.73;nan;100261.16;4954455;28;20054;-68
2023/07/13 02:16:48;;;;;;;17.20;7.30;;;;;;;22.68;nan;100256.72;4969648;28;20041;-68
2023/07/13 02:19:13;;;;;;;15.23;8.50;;;;;;;22.70;nan;100257.22;4974368;28;20373;-68
2023/07/13 02:21:39;;;;;;;16.77;8.00;;;;;;;22.70;nan;100251.06;4974157;28;20033;-67
2023/07/13 02:24:04;;;;;;;15.05;7.32;;;;;;;22.66;nan;100239.34;4973869;28;20555;-68
2023/07/13 02:26:30;;;;;;;14.85;7.40;;;;;;;22.70;nan;100257.22;4969520;28;20030;-67
2023/07/13 02:28:55;;;;;;;19.48;6.88;;;;;;;22.67;nan;100246.28;4974529;28;20440;-68
2023/07/13 02:31:20;;;;;;;23.02;7.88;;;;;;;22.67;nan;100241.72;4961109;28;20023;-69
2023/07/13 02:33:46;;;;;;;14.98;6.43;;;;;;;22.63;nan;100232.69;4972746;28;20042;-67
2023/07/13 02:36:13;;;;;;;15.27;7.35;;;;;;;22.58;nan;100240.09;4969900;28;20030;-68
2023/07/13 02:38:39;;;;;;;17.17;7.18;;;;;;;22.52;nan;100236.75;4968106;28;20039;-66
2023/07/13 02:41:08;;;;;;;21.70;7.60;;;;;;;22.48;nan;100238.47;4969373;28;20032;-66
2023/07/13 02:43:33;;;;;;;16.05;7.20;;;;;;;22.60;nan;100262.03;4973851;28;20372;-66
2023/07/13 02:46:04;;;;;;;14.43;7.15;;;;;;;22.63;nan;100256.88;4971586;28;20038;-66
2023/07/13 02:48:29;;;;;;;19.50;6.80;;;;;;;22.58;nan;100245.44;4966708;28;20488;-67
2023/07/13 02:50:55;;;;;;;19.60;7.45;;;;;;;22.60;nan;100251.31;4973708;28;20034;-66
2023/07/13 02:53:20;;;;;;;16.35;7.35;;;;;;;22.62;nan;100255.25;4966681;28;20045;-65
2023/07/13 02:55:47;;;;;;;19.55;7.43;;;;;;;22.59;nan;100253.19;4964231;28;20101;-66
2023/07/13 02:58:16;;;;;;;12.70;7.13;;;;;;;22.66;nan;100266.19;4953044;28;20030;-67
2023/07/13 03:00:42;;;;;;;15.13;7.30;;;;;;;22.62;nan;100251.78;4966131;28;20027;-67
2023/07/13 03:03:08;;;;;;;15.90;7.07;;;;;;;22.60;nan;100244.06;4967343;28;20489;-66
2023/07/13 03:05:33;;;;;;;20.80;7.30;;;;;;;22.59;nan;100234.41;4972524;28;20037;-65
2023/07/13 03:07:58;;;;;;;15.88;7.32;;;;;;;22.58;nan;100245.44;4941009;28;20031;-66
2023/07/13 03:10:24;;;;;;;13.88;7.18;;;;;;;22.56;nan;100247.69;4969478;28;20023;-68
2023/07/13 03:12:49;;;;;;;12.35;7.05;;;;;;;22.52;nan;100245.59;4967097;28;20082;-67
2023/07/13 03:15:14;;;;;;;19.23;7.10;;;;;;;22.49;nan;100224.75;4972857;28;20053;-68
2023/07/13 03:17:40;;;;;;;14.20;7.35;;;;;;;22.50;nan;100220.16;4971868;28;20110;-68
2023/07/13 03:20:07;;;;;;;15.88;7.50;;;;;;;22.58;nan;100234.72;4970877;28;20592;-68
2023/07/13 03:22:32;;;;;;;14.85;7.07;;;;;;;22.52;nan;100217.97;4969183;28;20118;-67
2023/07/13 03:24:57;;;;;;;16.52;7.57;;;;;;;22.58;nan;100232.84;4970702;28;20130;-67
2023/07/13 03:27:23;;;;;;;13.70;6.85;;;;;;;22.60;nan;100240.56;4968569;28;20030;-67
2023/07/13 03:29:48;;;;;;;14.82;7.18;;;;;;;22.61;nan;100240.28;4969251;28;20106;-67
2023/07/13 03:32:13;;;;;;;15.77;7.32;;;;;;;22.63;nan;100234.59;4969413;28;20031;-67
2023/07/13 03:34:39;;;;;;;20.73;7.28;;;;;;;22.59;nan;100234.41;4966603;28;20048;-67
2023/07/13 03:37:04;;;;;;;15.93;7.50;;;;;;;22.64;nan;100252.28;4951713;28;20054;-70
2023/07/13 03:39:30;;;;;;;15.02;7.47;;;;;;;22.61;nan;100244.84;4985947;28;20022;-69
2023/07/13 03:41:56;;;;;;;23.75;8.10;;;;;;;22.55;nan;100243.38;4975342;28;20050;-68
2023/07/13 03:44:21;;;;;;;16.20;7.10;;;;;;;22.57;nan;100249.25;4959056;28;20046;-68
2023/07/13 03:46:46;;;;;;;14.68;7.70;;;;;;;22.61;nan;100260.97;4976587;28;20030;-69
2023/07/13 03:49:12;;;;;;;16.85;7.65;;;;;;;22.60;nan;100251.31;4975794;28;20034;-68
2023/07/13 03:51:37;;;;;;;18.33;7.30;;;;;;;22.64;nan;100258.44;4970128;28;20492;-70
2023/07/13 03:54:03;;;;;;;15.00;7.07;;;;;;;22.68;nan;100251.34;4969990;28;20452;-70
2023/07/13 03:56:30;;;;;;;16.90;7.75;;;;;;;22.68;nan;100262.09;4953581;28;20040;-69
2023/07/13 03:58:55;;;;;;;13.93;7.55;;;;;;;22.73;nan;100272.69;4958634;28;20019;-69
2023/07/13 04:01:22;;;;;;;14.25;7.68;;;;;;;22.75;nan;100267.03;4974918;28;20516;-70
2023/07/13 04:03:48;;;;;;;12.45;7.20;;;;;;;22.78;nan;100268.28;4973264;28;20035;-70
2023/07/13 04:06:26;;;;;;;17.90;7.40;;;;;;;22.75;nan;100255.47;4955902;28;20488;-70
2023/07/13 04:08:54;;;;;;;17.88;7.70;;;;;;;22.80;nan;100260.72;4987886;28;20747;-70
2023/07/13 04:11:22;;;;;;;19.70;7.90;;;;;;;22.83;nan;100258.19;4949713;28;20565;-69
2023/07/13 04:13:47;;;;;;;18.42;8.60;;;;;;;22.83;nan;100265.47;4969558;28;20062;-70
2023/07/13 04:16:14;;;;;;;15.63;7.95;;;;;;;22.76;nan;100255.16;4970450;28;20018;-70
2023/07/13 04:18:41;;;;;;;21.90;8.18;;;;;;;22.84;nan;100259.78;4971776;28;20091;-70
2023/07/13 04:21:07;;;;;;;17.08;8.60;;;;;;;22.83;nan;100260.09;4959783;28;20527;-69
2023/07/13 04:23:32;;;;;;;26.60;9.18;;;;;;;22.89;nan;100274.94;4983598;28;20034;-68
2023/07/13 04:25:57;;;;;;;21.30;8.70;;;;;;;22.90;nan;100277.34;4967872;28;20026;-70
2023/07/13 04:28:25;;;;;;;16.83;8.80;;;;;;;22.97;nan;100286.84;4960092;28;20033;-71
2023/07/13 04:30:51;;;;;;;22.17;8.70;;;;;;;23.00;nan;100297.00;4976880;28;20034;-70
2023/07/13 04:33:22;;;;;;;19.50;9.18;;;;;;;23.01;nan;100295.88;4972923;28;20085;-70
2023/07/13 04:35:54;;;;;;;16.95;8.45;;;;;;;22.99;nan;100273.94;4952553;28;20041;-68
2023/07/13 04:38:20;;;;;;;15.77;9.35;;;;;;;23.07;nan;100268.56;4958457;28;20149;-69
2023/07/13 04:40:45;;;;;;;22.15;9.65;;;;;;;23.03;nan;100248.78;4973807;28;20766;-69
2023/07/13 04:43:10;;;;;;;22.83;9.15;;;;;;;23.17;nan;100264.81;4969958;28;20473;-70
2023/07/13 04:45:36;;;;;;;16.45;8.88;;;;;;;23.23;nan;100265.47;4968188;28;20038;-68
2023/07/13 04:48:02;;;;;;;25.00;8.93;;;;;;;23.29;nan;100266.88;4974444;28;20035;-70
2023/07/13 04:50:27;;;;;;;22.70;9.18;;;;;;;23.32;nan;100255.50;4971962;28;20030;-70
2023/07/13 04:52:52;;;;;;;20.00;8.80;;;;;;;23.42;nan;100281.31;4969809;28;20548;-68
2023/07/13 04:55:19;;;;;;;18.33;9.10;;;;;;;23.52;nan;100287.16;4969472;28;20081;-68
2023/07/13 04:57:46;;;;;;;25.90;9.77;;;;;;;23.61;nan;100275.59;4970665;28;20591;-69
2023/07/13 05:00:13;;;;;;;27.23;10.45;;;;;;;23.68;nan;100257.13;4969695;28;20073;-71
2023/07/13 05:02:39;;;;;;;20.45;9.55;;;;;;;23.71;nan;100257.28;4969475;28;20018;-70
2023/07/13 05:05:06;;;;;;;25.40;9.68;;;;;;;23.85;nan;100275.16;4973140;28;20041;-70
2023/07/13 05:07:32;;;;;;;24.88;9.48;;;;;;;23.90;nan;100275.81;4970174;28;20023;-69
2023/07/13 05:09:59;;;;;;;21.20;9.05;;;;;;;23.97;nan;100286.88;4968164;28;20026;-70
2023/07/13 05:12:25;;;;;;;20.83;9.32;;;;;;;24.12;nan;100298.28;4969415;28;20029;-69
2023/07/13 05:14:50;;;;;;;20.02;8.55;;;;;;;24.23;nan;100302.22;4951164;28;20824;-69
2023/07/13 05:17:16;;;;;;;19.95;9.30;;;;;;;24.31;nan;100304.09;4949325;28;20023;-70
2023/07/13 05:19:41;;;;;;;17.63;9.13;;;;;;;24.38;nan;100298.22;4951373;28;20638;-70
2023/07/13 05:22:06;;;;;;;25.35;9.98;;;;;;;24.45;nan;100293.16;4950133;28;20039;-70
2023/07/13 05:24:32;;;;;;;16.58;9.88;;;;;;;24.53;nan;100307.72;4952080;28;20038;-70
2023/07/13 05:26:57;;;;;;;24.05;9.55;;;;;;;24.57;nan;100303.28;4947851;28;20073;-69
2023/07/13 05:29:23;;;;;;;19.33;10.05;;;;;;;24.66;nan;100306.72;4951958;28;20038;-70
2023/07/13 05:31:49;;;;;;;18.63;9.23;;;;;;;24.76;nan;100322.53;4951510;28;20658;-70
2023/07/13 05:34:14;;;;;;;15.73;9.10;;;;;;;24.76;nan;100319.06;4950570;28;20023;-69
2023/07/13 05:36:40;;;;;;;15.23;10.05;;;;;;;24.90;nan;100346.59;4953353;28;20548;-69
2023/07/13 05:39:06;;;;;;;23.20;9.98;;;;;;;24.97;nan;100360.34;4951611;28;20031;-68
2023/07/13 05:41:31;;;;;;;19.00;9.80;;;;;;;25.06;nan;100365.69;4951336;28;20549;-69
2023/07/13 05:43:56;;;;;;;19.13;9.52;;;;;;;25.16;nan;100378.00;4950673;28;20094;-69
2023/07/13 05:46:22;;;;;;;20.25;9.35;;;;;;;25.30;nan;100388.59;4951923;28;20429;-69
2023/07/13 05:48:47;;;;;;;14.88;9.60;;;;;;;25.37;nan;100396.97;4948106;28;20031;-70
2023/07/13 05:51:13;;;;;;;15.73;9.40;;;;;;;25.48;nan;100425.16;4952311;28;20106;-69
2023/07/13 05:53:39;;;;;;;16.25;10.50;;;;;;;25.53;nan;100424.97;4953853;28;20489;-70
2023/07/13 05:56:04;;;;;;;17.30;10.35;;;;;;;25.70;nan;100432.16;4952629;28;20438;-70
2023/07/13 05:58:30;;;;;;;18.30;10.70;;;;;;;25.78;nan;100403.56;4967457;28;20035;-68
2023/07/13 06:01:05;;;;;;;18.92;11.10;;;;;;;25.91;nan;100394.47;4957034;28;20049;-70
2023/07/13 06:03:31;;;;;;;20.35;10.90;;;;;;;25.96;nan;100399.66;4948795;28;20035;-70
2023/07/13 06:05:56;;;;;;;17.10;11.25;;;;;;;25.96;nan;100406.97;4951263;28;20118;-71
2023/07/13 06:08:21;;;;;;;22.10;11.30;;;;;;;26.05;nan;100408.50;4951385;28;20118;-70
2023/07/13 06:10:47;;;;;;;19.80;11.35;;;;;;;26.16;nan;100378.41;4949410;28;20035;-68
2023/07/13 06:13:12;;;;;;;14.88;11.55;;;;;;;26.24;nan;100377.53;4947962;28;20034;-69
2023/07/13 06:15:38;;;;;;;24.45;12.05;;;;;;;26.38;nan;100393.44;4968074;28;20078;-69
2023/07/13 06:18:03;;;;;;;16.85;10.48;;;;;;;26.40;nan;100375.78;4968598;28;20023;-67
2023/07/13 06:20:30;;;;;;;19.75;11.02;;;;;;;26.55;nan;100381.72;4970164;28;20019;-68
2023/07/13 06:22:55;;;;;;;16.58;10.90;;;;;;;26.60;nan;100366.13;4949647;28;20042;-68
2023/07/13 06:25:21;;;;;;;19.58;11.55;;;;;;;26.72;nan;100376.94;4935321;28;20027;-67
2023/07/13 06:27:46;;;;;;;16.33;10.95;;;;;;;26.80;nan;100372.56;4928066;28;20297;-68
2023/07/13 06:30:12;;;;;;;22.88;11.70;;;;;;;26.87;nan;100363.91;4949226;28;20035;-67
2023/07/13 06:32:37;;;;;;;14.55;10.68;;;;;;;26.96;nan;100380.81;4933981;28;20122;-67
2023/07/13 06:35:03;;;;;;;17.50;10.25;;;;;;;27.03;nan;100396.47;4964269;28;20113;-68
2023/07/13 06:37:29;;;;;;;22.08;11.30;;;;;;;27.12;nan;100394.44;4951698;28;20111;-67
2023/07/13 06:39:54;;;;;;;19.77;10.98;;;;;;;27.17;nan;100403.13;4950091;28;20027;-67
2023/07/13 06:42:19;;;;;;;14.75;10.25;;;;;;;27.13;nan;100391.41;4951021;28;20038;-69
2023/07/13 06:44:45;;;;;;;18.40;11.27;;;;;;;27.42;nan;100413.22;4941091;28;20047;-69
2023/07/13 06:47:10;;;;;;;21.83;11.35;;;;;;;27.50;nan;100423.09;4951910;28;20066;-68
2023/07/13 06:49:35;;;;;;;19.73;10.43;;;;;;;27.57;nan;100412.50;4950056;28;20051;-68
2023/07/13 06:52:01;;;;;;;19.00;11.05;;;;;;;27.61;nan;100385.56;4939017;28;20035;-68
2023/07/13 06:54:26;;;;;;;17.73;10.80;;;;;;;27.51;nan;100355.16;4948692;28;20031;-69
2023/07/13 06:56:52;;;;;;;17.65;10.73;;;;;;;27.83;nan;100389.75;4949934;28;20043;-68
2023/07/13 06:59:17;;;;;;;16.48;10.00;;;;;;;27.85;nan;100372.03;4950284;28;20027;-68
2023/07/13 07:01:42;;;;;;;24.83;10.80;;;;;;;27.95;nan;100379.66;4945513;28;20411;-69
2023/07/13 07:04:08;;;;;;;21.20;10.45;;;;;;;27.98;nan;100362.72;4949599;28;20043;-69
2023/07/13 07:06:33;;;;;;;21.33;10.50;;;;;;;28.07;nan;100365.31;4933697;28;20030;-69
2023/07/13 07:08:59;;;;;;;19.88;10.88;;;;;;;28.07;nan;100357.19;4950747;28;20058;-69
2023/07/13 07:11:25;;;;;;;16.08;10.57;;;;;;;28.17;nan;100356.69;4941001;28;20061;-69
2023/07/13 07:13:55;;;;;;;18.42;9.88;;;;;;;28.27;nan;100368.16;4945244;28;20051;-69
2023/07/13 07:16:21;;;;;;;18.77;10.40;;;;;;;28.35;nan;100367.22;4950800;28;20035;-70
2023/07/13 07:18:47;;;;;;;19.48;10.75;;;;;;;28.37;nan;100349.50;4948461;28;20038;-69
2023/07/13 07:21:13;;;;;;;17.23;10.05;;;;;;;28.54;nan;100374.72;4949789;28;20179;-69
2023/07/13 07:23:39;;;;;;;17.05;10.57;;;;;;;28.54;nan;100356.56;4950909;28;20099;-69
2023/07/13 07:26:05;;;;;;;18.70;10.35;;;;;;;28.59;nan;100345.47;4949173;28;20450;-68
2023/07/13 07:28:30;;;;;;;17.02;9.30;;;;;;;28.71;nan;100368.97;4934043;28;20035;-69
2023/07/13 07:30:57;;;;;;;17.52;10.20;;;;;;;28.73;nan;100365.91;4948788;28;20027;-69
2023/07/13 07:33:23;;;;;;;19.40;9.55;;;;;;;28.80;nan;100347.94;4948131;28;20027;-69
2023/07/13 07:35:49;;;;;;;21.75;9.13;;;;;;;28.96;nan;100353.31;4949005;28;20478;-69
2023/07/13 07:38:15;;;;;;;23.23;8.52;;;;;;;29.01;nan;100355.00;4948312;28;20024;-69
2023/07/13 07:40:41;;;;;;;13.02;8.52;;;;;;;29.10;nan;100344.78;4950757;28;20035;-70
2023/07/13 07:43:08;;;;;;;15.73;7.88;;;;;;;29.31;nan;100351.81;4953659;28;20050;-69
2023/07/13 07:45:34;;;;;;;14.32;7.38;;;;;;;29.40;nan;100355.13;4949227;28;20046;-69
2023/07/13 07:48:00;;;;;;;21.30;6.90;;;;;;;29.59;nan;100355.16;4950588;28;20042;-69
2023/07/13 07:50:29;;;;;;;16.50;6.97;;;;;;;29.65;nan;100347.56;4949721;28;20405;-70
2023/07/13 07:52:58;;;;;;;21.63;7.25;;;;;;;29.73;nan;100341.16;4949425;28;20035;-70
2023/07/13 07:55:25;;;;;;;;;;;;;;;29.81;nan;100336.66;4951144;28;20038;-70
2023/07/13 07:57:50;;;;;;;16.58;7.35;;;;;;;29.82;nan;100328.16;4932231;28;19920;-69
2023/07/13 08:00:16;;;;;;;17.42;7.28;;;;;;;29.90;nan;100316.28;4951698;28;20031;-68
2023/07/13 08:02:42;;;;;;;22.98;7.75;;;;;;;29.96;nan;100324.94;4932142;28;20034;-69
2023/07/13 08:05:08;;;;;;;19.20;8.35;;;;;;;29.95;nan;100317.94;4941455;28;20031;-69
2023/07/13 08:07:35;;;;;;;19.70;7.93;;;;;;;30.03;nan;100319.66;4949698;28;20035;-69
2023/07/13 08:10:01;;;;;;;13.75;6.40;;;;;;;30.09;nan;100315.47;4936432;29;20050;-69
2023/07/13 08:12:26;;;;;;;15.63;5.07;;;;;;;30.07;nan;100306.94;4935922;28;20031;-69
2023/07/13 08:14:53;;;;;;;14.20;4.80;;;;;;;30.14;nan;100300.81;4933165;28;20054;-69
2023/07/13 08:17:19;;;;;;;11.80;4.68;;;;;;;30.24;nan;100289.41;4924575;28;20541;-70
2023/07/13 08:19:45;;;;;;;23.23;4.38;;;;;;;30.35;nan;100294.25;4950293;28;20046;-70
2023/07/13 08:22:12;;;;;;;19.73;4.90;;;;;;;30.40;nan;100299.38;4949129;28;20126;-70
2023/07/13 08:24:37;;;;;;;13.85;4.25;;;;;;;30.44;nan;100292.09;4948185;28;20032;-70
2023/07/13 08:27:03;;;;;;;14.77;4.80;;;;;;;30.45;nan;100289.00;4950811;28;20086;-69
2023/07/13 08:29:31;;;;;;;14.73;4.85;;;;;;;30.56;nan;100297.34;4967866;28;20066;-69
2023/07/13 08:31:57;;;;;;;15.53;5.53;;;;;;;30.61;nan;100290.81;4952002;28;20150;-69
2023/07/13 08:34:23;;;;;;;17.67;5.07;;;;;;;30.61;nan;100294.31;4952631;28;20368;-70
2023/07/13 08:36:48;;;;;;;14.20;5.32;;;;;;;30.63;nan;100283.88;4947567;28;20050;-70
2023/07/13 08:39:13;;;;;;;14.75;5.32;;;;;;;30.68;nan;100289.00;4951399;28;20038;-68
2023/07/13 08:41:39;;;;;;;18.83;4.65;;;;;;;30.74;nan;100292.19;4944841;28;20593;-71
2023/07/13 08:44:16;;;;;;;15.98;5.10;;;;;;;30.76;nan;100286.38;4957554;28;20491;-71
2023/07/13 08:46:45;;;;;;;16.17;4.90;;;;;;;30.79;nan;100272.06;4953586;28;20028;-71
2023/07/13 08:49:16;;;;;;;15.73;4.95;;;;;;;30.86;nan;100283.06;4950168;28;20026;-72
2023/07/13 08:51:42;;;;;;;21.10;5.70;;;;;;;30.89;nan;100274.19;4951766;28;20035;-71
2023/07/13 08:54:17;;;;;;;19.15;4.95;;;;;;;30.92;nan;100276.19;4952105;28;20075;-71
2023/07/13 08:56:46;;;;;;;19.58;5.22;;;;;;;30.86;nan;100269.47;4938551;28;20138;-71
2023/07/13 08:59:16;;;;;;;15.32;5.32;;;;;;;30.96;nan;100274.31;4934919;28;20050;-72
2023/07/13 09:02:06;;;;;;;18.10;5.93;;;;;;;31.00;nan;100266.19;4965488;28;20532;-71
2023/07/13 09:05:10;;;;;;;12.10;4.93;;;;;;;31.04;nan;100272.47;4951964;28;20046;-71
2023/07/13 09:08:01;;;;;;;16.60;5.47;;;;;;;31.04;nan;100275.97;4920535;28;20054;-71
2023/07/13 09:10:28;;;;;;;16.85;5.32;;;;;;;31.05;nan;100284.91;4952164;28;20090;-71
2023/07/13 09:13:07;;;;;;;17.33;5.32;;;;;;;31.06;nan;100276.38;4969378;28;20054;-72
2023/07/13 09:15:36;;;;;;;;;;;;;;;31.16;nan;100283.91;4946875;28;20494;-71
2023/07/13 09:18:18;;;;;;;15.23;4.97;;;;;;;31.13;nan;100268.31;4952950;28;19918;-72
2023/07/13 09:21:02;;;;;;;18.95;5.38;;;;;;;31.28;nan;100280.19;4931003;29;20031;-72
2023/07/13 09:23:32;;;;;;;19.83;5.18;;;;;;;31.34;nan;100278.72;4949570;28;20481;-71
2023/07/13 09:26:14;;;;;;;19.80;5.15;;;;;;;31.34;nan;100276.00;4946729;28;20039;-72
2023/07/13 09:28:44;;;;;;;18.00;5.30;;;;;;;31.40;nan;100279.19;4947669;28;20055;-71
2023/07/13 09:31:23;;;;;;;16.95;5.55;;;;;;;31.34;nan;100262.41;4947897;28;20064;-70
2023/07/13 09:33:50;;;;;;;11.57;4.88;;;;;;;31.48;nan;100269.19;4953523;28;20062;-70
2023/07/13 09:36:29;;;;;;;21.58;5.47;;;;;;;31.60;nan;100284.50;4949727;28;20047;-71
2023/07/13 09:39:29;;;;;;;21.52;5.78;;;;;;;31.69;nan;100287.72;4944507;28;20027;-71
2023/07/13 09:42:06;;;;;;;17.58;5.50;;;;;;;31.72;nan;100281.53;4950193;28;20195;-71
2023/07/13 09:44:38;;;;;;;18.92;5.72;;;;;;;31.87;nan;100291.44;4967060;28;20082;-71
2023/07/13 09:47:16;;;;;;;14.93;5.55;;;;;;;31.95;nan;100287.66;4954465;28;20061;-72
2023/07/13 09:49:43;;;;;;;13.90;5.57;;;;;;;32.03;nan;100290.44;4949319;28;20037;-72
2023/07/13 09:52:12;;;;;;;17.33;5.70;;;;;;;32.03;nan;100288.50;4968496;28;20027;-69
2023/07/13 09:54:37;;;;;;;15.15;6.05;;;;;;;32.03;nan;100272.16;4949753;28;20751;-70
2023/07/13 09:57:12;;;;;;;22.65;7.15;;;;;;;32.08;nan;100284.66;4955176;28;20125;-72
2023/07/13 09:59:46;;;;;;;19.80;5.88;;;;;;;32.08;nan;100292.81;4952938;28;20474;-70
2023/07/13 10:02:26;;;;;;;16.17;6.20;;;;;;;32.08;nan;100282.72;4928755;28;20382;-71
2023/07/13 10:04:58;;;;;;;17.35;5.63;;;;;;;32.17;nan;100271.53;4951775;28;20035;-71
2023/07/13 10:07:24;;;;;;;18.63;6.35;;;;;;;32.22;nan;100271.16;4951904;28;20081;-70
2023/07/13 10:09:57;;;;;;;15.38;5.93;;;;;;;32.31;nan;100268.94;4950657;28;20034;-72
2023/07/13 10:12:24;;;;;;;18.50;5.70;;;;;;;32.34;nan;100261.94;4952092;28;20023;-72
2023/07/13 10:15:00;;;;;;;16.10;6.05;;;;;;;32.42;nan;100269.00;4938535;28;20057;-70
2023/07/13 10:17:32;;;;;;;19.95;6.05;;;;;;;32.45;nan;100264.75;4943103;28;20393;-70
2023/07/13 10:20:05;;;;;;;15.15;5.93;;;;;;;32.53;nan;100260.94;4949018;28;20493;-70
2023/07/13 10:22:33;;;;;;;16.27;6.07;;;;;;;32.66;nan;100264.16;4949384;28;20549;-69
2023/07/13 10:25:00;;;;;;;13.87;5.13;;;;;;;32.72;nan;100252.53;4935641;28;20038;-72
2023/07/13 10:27:44;;;;;;;16.55;6.07;;;;;;;32.83;nan;100252.59;4952667;28;20794;-69
2023/07/13 10:30:19;;;;;;;19.02;6.30;;;;;;;32.93;nan;100251.09;4948615;28;20122;-71
2023/07/13 10:32:47;;;;;;;19.13;6.50;;;;;;;32.92;nan;100247.56;4946336;28;20382;-68
2023/07/13 10:35:18;;;;;;;29.40;6.43;;;;;;;32.90;nan;100244.47;4920485;28;20109;-67
2023/07/13 10:38:01;;;;;;;19.65;5.07;;;;;;;32.99;nan;100247.63;4949682;28;20500;-69
2023/07/13 10:40:32;;;;;;;15.07;5.80;;;;;;;33.13;nan;100254.34;4956321;28;20054;-70
2023/07/13 10:43:01;;;;;;;20.58;5.82;;;;;;;33.17;nan;100239.56;4950935;28;20027;-69
2023/07/13 10:45:34;;;;;;;13.63;5.43;;;;;;;33.29;nan;100248.59;4950577;28;20055;-70
2023/07/13 10:48:03;;;;;;;16.95;5.57;;;;;;;33.25;nan;100232.97;4948118;28;20023;-69
2023/07/13 10:50:35;;;;;;;18.95;5.00;;;;;;;33.38;nan;100235.34;4937033;28;20031;-70
2023/07/13 10:53:30;;;;;;;17.80;5.22;;;;;;;33.46;nan;100226.81;4949551;28;20090;-68
2023/07/13 10:55:59;;;;;;;14.07;4.97;;;;;;;33.60;nan;100242.50;4949797;28;20114;-70
2023/07/13 11:01:07;;;;;;;19.08;5.65;;;;;;;33.70;nan;100229.25;5477488;23;20121;-71
2023/07/13 11:03:36;;;;;;;16.92;5.18;;;;;;;33.74;nan;100240.94;4959306;28;20129;-72
2023/07/13 11:06:08;;;;;;;15.13;4.95;;;;;;;33.74;nan;100227.28;4954289;28;20030;-70
2023/07/13 11:08:55;;;;;;;12.55;5.20;;;;;;;33.86;nan;100238.66;4956427;28;20023;-70
2023/07/13 11:11:24;;;;;;;11.95;4.70;;;;;;;33.93;nan;100234.34;4955991;28;20043;-71
2023/07/13 11:13:49;;;;;;;;;;;;;;;34.01;nan;100235.94;4947552;28;20041;-69
2023/07/13 11:16:17;;;;;;;17.23;4.47;;;;;;;34.07;nan;100232.44;4956499;28;19914;-69
2023/07/13 11:18:49;;;;;;;19.65;4.72;;;;;;;34.10;nan;100231.69;4943670;28;20019;-70
2023/07/13 11:21:18;;;;;;;17.73;5.40;;;;;;;34.12;nan;100234.00;4947373;28;20086;-71
2023/07/13 11:23:51;;;;;;;16.73;4.97;;;;;;;34.14;nan;100234.41;4958705;28;20050;-69
2023/07/13 11:26:52;;;;;;;17.45;5.32;;;;;;;34.15;nan;100238.72;4958028;28;20019;-70
2023/07/13 11:29:17;;;;;;;22.23;6.00;;;;;;;34.11;nan;100232.47;4956977;28;20038;-70
2023/07/13 11:31:50;;;;;;;11.57;5.27;;;;;;;34.08;nan;100219.56;4955680;28;20038;-71
2023/07/13 11:34:21;;;;;;;17.40;5.05;;;;;;;34.09;nan;100212.94;4957127;28;20312;-71
2023/07/13 11:36:47;;;;;;;14.40;4.68;;;;;;;34.10;nan;100222.72;4958720;28;20067;-70
2023/07/13 11:39:21;;;;;;;21.45;5.25;;;;;;;34.19;nan;100223.09;4973873;28;20516;-71
2023/07/13 11:41:53;;;;;;;16.67;4.90;;;;;;;34.30;nan;100207.47;4958144;28;20030;-71